createdAt,value
2022-10-15T00:00:59.249Z,100.00
2022-10-15T00:04:16.979Z,100.00
2022-10-15T00:07:33.851Z,100.00
2022-10-15T00:10:51.663Z,100.00
2022-10-15T00:14:09.261Z,100.00
2022-10-15T00:17:25.697Z,100.00
2022-10-15T00:20:42.349Z,100.00
2022-10-15T00:23:58.962Z,100.00
2022-10-15T00:27:15.318Z,100.00
2022-10-15T00:30:31.457Z,100.00
2022-10-15T00:33:49.142Z,100.00
2022-10-15T00:37:05.179Z,100.00
2022-10-15T00:40:23.686Z,100.00
2022-10-15T00:43:50.240Z,100.00
2022-10-15T00:47:10.708Z,100.00
2022-10-15T00:50:30.750Z,100.00
2022-10-15T00:53:47.138Z,100.00
2022-10-15T00:57:04.749Z,100.00
2022-10-15T01:00:25.102Z,100.00
2022-10-15T01:03:41.262Z,100.00
2022-10-15T01:06:57.355Z,100.00
2022-10-15T01:10:15.753Z,100.00
2022-10-15T01:13:41.759Z,100.00
2022-10-15T01:17:04.123Z,100.00
2022-10-15T01:20:58.550Z,100.00
2022-10-15T01:24:48.638Z,100.00
2022-10-15T01:28:10.714Z,100.00
2022-10-15T01:31:34.097Z,100.00
2022-10-15T01:34:56.077Z,100.00
2022-10-15T01:38:21.526Z,100.00
2022-10-15T01:41:43.463Z,100.00
2022-10-15T01:45:03.906Z,100.00
2022-10-15T01:48:26.855Z,100.00
2022-10-15T01:51:48.744Z,100.00
2022-10-15T01:55:07.458Z,100.00
2022-10-15T01:58:26.580Z,100.00
2022-10-15T02:04:58.475Z,100.00
2022-10-15T02:08:20.326Z,100.00
2022-10-15T02:11:43.378Z,100.00
2022-10-15T02:15:04.692Z,100.00
2022-10-15T02:18:25.957Z,100.00
2022-10-15T02:21:47.801Z,100.00
2022-10-15T02:25:09.364Z,100.00
2022-10-15T02:28:27.667Z,100.00
2022-10-15T02:31:47.691Z,100.00
2022-10-15T02:35:04.666Z,100.00
2022-10-15T02:38:25.129Z,100.00
2022-10-15T02:41:43.862Z,100.00
2022-10-15T02:45:01.175Z,100.00
2022-10-15T02:48:18.097Z,100.00
2022-10-15T02:51:38.708Z,100.00
2022-10-15T02:54:54.912Z,100.00
2022-10-15T02:58:11.428Z,100.00
2022-10-15T03:01:28.015Z,100.00
2022-10-15T03:04:44.516Z,100.00
2022-10-15T03:08:03.153Z,100.00
2022-10-15T03:11:17.988Z,100.00
2022-10-15T03:14:34.549Z,100.00
2022-10-15T03:17:52.984Z,100.00
2022-10-15T03:21:09.765Z,100.00
2022-10-15T03:24:26.930Z,100.00
2022-10-15T03:27:43.146Z,100.00
2022-10-15T03:31:00.919Z,100.00
2022-10-15T03:34:17.643Z,100.00
2022-10-15T03:37:34.724Z,100.00
2022-10-15T03:40:52.935Z,100.00
2022-10-15T03:44:13.915Z,100.00
2022-10-15T03:47:31.731Z,100.00
2022-10-15T03:50:49.271Z,100.00
2022-10-15T03:54:06.075Z,100.00
2022-10-15T03:57:23.801Z,100.00
2022-10-15T04:00:42.113Z,100.00
2022-10-15T04:04:01.188Z,100.00
2022-10-15T04:07:18.462Z,100.00
2022-10-15T04:10:35.432Z,100.00
2022-10-15T04:13:55.404Z,100.00
2022-10-15T04:17:11.770Z,100.00
2022-10-15T04:20:28.342Z,100.00
2022-10-15T04:23:46.751Z,100.00
2022-10-15T04:27:08.397Z,100.00
2022-10-15T04:30:25.877Z,100.00
2022-10-15T04:33:44.123Z,100.00
2022-10-15T04:37:00.681Z,100.00
2022-10-15T04:40:20.208Z,100.00
2022-10-15T04:43:34.613Z,100.00
2022-10-15T04:46:52.788Z,100.00
2022-10-15T04:50:26.055Z,100.00
2022-10-15T04:54:03.132Z,100.00
2022-10-15T04:57:19.379Z,100.00
2022-10-15T05:00:35.588Z,100.00
2022-10-15T05:03:58.348Z,100.00
2022-10-15T05:07:15.242Z,100.00
2022-10-15T05:10:31.499Z,100.00
2022-10-15T05:13:49.623Z,100.00
2022-10-15T05:17:06.481Z,100.00
2022-10-15T05:20:24.644Z,100.00
2022-10-15T05:23:42.057Z,100.00
2022-10-15T05:27:05.440Z,100.00
2022-10-15T05:30:23.459Z,100.00
2022-10-15T05:33:40.997Z,100.00
2022-10-15T05:36:58.067Z,100.00
2022-10-15T05:40:19.651Z,100.00
2022-10-15T05:43:40.307Z,100.00
2022-10-15T05:46:55.108Z,100.00
2022-10-15T05:50:14.523Z,100.00
2022-10-15T05:53:32.477Z,100.00
2022-10-15T05:56:50.249Z,100.00
2022-10-15T06:00:06.354Z,100.00
2022-10-15T06:03:24.819Z,100.00
2022-10-15T06:06:40.881Z,100.00
2022-10-15T06:09:57.569Z,100.00
2022-10-15T06:13:16.152Z,100.00
2022-10-15T06:16:32.751Z,100.00
2022-10-15T06:19:49.338Z,100.00
2022-10-15T06:23:11.846Z,100.00
2022-10-15T06:26:28.557Z,100.00
2022-10-15T06:29:44.985Z,100.00
2022-10-15T06:33:02.344Z,100.00
2022-10-15T06:36:19.862Z,100.00
2022-10-15T06:39:36.089Z,100.00
2022-10-15T06:42:52.557Z,100.00
2022-10-15T06:46:09.697Z,100.00
2022-10-15T06:49:25.770Z,100.00
2022-10-15T06:52:42.477Z,100.00
2022-10-15T06:56:07.606Z,100.00
2022-10-15T06:59:26.780Z,100.00
2022-10-15T07:02:48.838Z,100.00
2022-10-15T07:06:12.767Z,100.00
2022-10-15T07:09:29.102Z,100.00
2022-10-15T07:12:48.742Z,100.00
2022-10-15T07:16:05.315Z,100.00
2022-10-15T07:19:22.254Z,100.00
2022-10-15T07:22:38.359Z,100.00
2022-10-15T07:25:54.745Z,100.00
2022-10-15T07:29:11.590Z,100.00
2022-10-15T07:32:28.437Z,100.00
2022-10-15T07:35:45.222Z,100.00
2022-10-15T07:39:01.452Z,100.00
2022-10-15T07:42:17.642Z,100.00
2022-10-15T07:45:34.876Z,100.00
2022-10-15T07:48:50.632Z,100.00
2022-10-15T07:52:08.533Z,100.00
2022-10-15T07:55:25.051Z,100.00
2022-10-15T07:58:41.382Z,100.00
2022-10-15T08:01:57.602Z,100.00
2022-10-15T08:05:15.514Z,100.00
2022-10-15T08:08:34.039Z,100.00
2022-10-15T08:11:50.740Z,100.00
2022-10-15T08:15:08.187Z,100.00
2022-10-15T08:18:24.404Z,100.00
2022-10-15T08:21:42.718Z,99.10
2022-10-15T08:24:58.141Z,95.92
2022-10-15T08:28:14.866Z,97.65
2022-10-15T08:31:32.482Z,99.16
2022-10-15T08:34:48.583Z,99.04
2022-10-15T08:38:05.252Z,94.76
2022-10-15T08:41:33.395Z,89.31
2022-10-15T08:44:55.110Z,87.99
2022-10-15T08:48:16.270Z,88.21
2022-10-15T08:51:39.567Z,87.39
2022-10-15T08:54:55.653Z,87.08
2022-10-15T08:58:19.152Z,86.12
2022-10-15T09:01:41.167Z,87.75
2022-10-15T09:05:05.291Z,84.99
2022-10-15T09:08:30.879Z,82.01
2022-10-15T09:11:56.528Z,81.16
2022-10-15T09:15:16.506Z,81.44
2022-10-15T09:18:37.593Z,79.06
2022-10-15T09:21:57.756Z,77.83
2022-10-15T09:25:28.606Z,81.14
2022-10-15T09:28:54.437Z,79.89
2022-10-15T09:32:19.667Z,76.56
2022-10-15T09:35:40.866Z,74.50
2022-10-15T09:39:07.818Z,76.40
2022-10-15T09:42:34.594Z,78.50
2022-10-15T09:45:51.796Z,75.00
2022-10-15T09:49:18.453Z,75.50
2022-10-15T09:52:48.277Z,75.17
2022-10-15T09:56:09.050Z,75.47
2022-10-15T09:59:29.399Z,74.73
2022-10-15T10:02:49.877Z,75.26
2022-10-15T10:06:14.992Z,75.90
2022-10-15T10:09:37.629Z,75.19
2022-10-15T10:12:55.156Z,75.58
2022-10-15T10:16:17.923Z,75.18
2022-10-15T10:19:34.194Z,75.39
2022-10-15T10:22:55.284Z,75.94
2022-10-15T10:26:16.613Z,76.58
2022-10-15T10:29:35.307Z,76.91
2022-10-15T10:32:55.079Z,75.69
2022-10-15T10:36:13.819Z,74.68
2022-10-15T10:39:37.289Z,76.07
2022-10-15T10:42:53.406Z,75.92
2022-10-15T10:46:15.415Z,77.43
2022-10-15T10:49:43.773Z,74.96
2022-10-15T10:53:20.624Z,76.91
2022-10-15T10:56:40.735Z,79.33
2022-10-15T11:00:00.926Z,80.92
2022-10-15T11:03:26.856Z,80.87
2022-10-15T11:07:04.388Z,81.68
2022-10-15T11:10:27.376Z,82.54
2022-10-15T11:13:59.320Z,80.68
2022-10-15T11:17:21.925Z,78.77
2022-10-15T11:20:56.305Z,77.38
2022-10-15T11:24:37.792Z,78.70
2022-10-15T11:28:14.627Z,78.11
2022-10-15T11:31:44.020Z,78.48
2022-10-15T11:35:07.312Z,77.38
2022-10-15T11:38:31.351Z,77.90
2022-10-15T11:41:53.411Z,77.52
2022-10-15T11:45:44.448Z,76.89
2022-10-15T11:49:13.454Z,77.35
2022-10-15T11:52:53.872Z,76.89
2022-10-15T11:56:16.016Z,76.07
2022-10-15T11:59:43.513Z,76.07
2022-10-15T12:03:03.542Z,75.03
2022-10-15T12:06:24.052Z,75.24
2022-10-15T12:09:44.815Z,74.27
2022-10-15T12:13:06.282Z,75.25
2022-10-15T12:16:30.872Z,75.36
2022-10-15T12:19:52.032Z,75.59
2022-10-15T12:23:10.852Z,73.89
2022-10-15T12:26:39.937Z,74.18
2022-10-15T12:30:05.132Z,72.85
2022-10-15T12:33:41.023Z,73.52
2022-10-15T12:37:06.701Z,73.20
2022-10-15T12:40:34.958Z,71.48
2022-10-15T12:43:56.454Z,71.96
2022-10-15T12:47:14.876Z,71.82
2022-10-15T12:50:36.363Z,71.50
2022-10-15T12:53:56.938Z,69.55
2022-10-15T12:57:44.976Z,68.87
2022-10-15T13:01:01.117Z,68.74
2022-10-15T13:04:17.902Z,68.08
2022-10-15T13:07:36.803Z,67.44
2022-10-15T13:11:00.728Z,66.93
2022-10-15T13:14:30.169Z,67.13
2022-10-15T13:17:48.765Z,67.65
2022-10-15T13:21:11.271Z,66.77
2022-10-15T13:24:30.012Z,68.00
2022-10-15T13:27:47.110Z,68.21
2022-10-15T13:31:03.991Z,66.88
2022-10-15T13:34:29.981Z,66.35
2022-10-15T13:37:51.812Z,66.14
2022-10-15T13:41:08.209Z,65.70
2022-10-15T13:44:34.647Z,65.20
2022-10-15T13:47:54.774Z,66.18
2022-10-15T13:51:15.041Z,64.77
2022-10-15T13:54:34.256Z,64.38
2022-10-15T13:57:53.819Z,64.02
2022-10-15T14:01:14.197Z,63.47
2022-10-15T14:04:32.057Z,63.97
2022-10-15T14:07:48.074Z,64.29
2022-10-15T14:11:06.955Z,64.43
2022-10-15T14:14:48.911Z,64.76
2022-10-15T14:18:06.309Z,65.28
2022-10-15T14:21:28.905Z,64.68
2022-10-15T14:24:47.557Z,64.77
2022-10-15T14:28:04.043Z,65.37
2022-10-15T14:31:32.449Z,65.45
2022-10-15T14:34:50.197Z,64.96
2022-10-15T14:38:21.774Z,66.06
2022-10-15T14:41:40.761Z,66.18
2022-10-15T14:45:01.457Z,66.15
2022-10-15T14:48:25.088Z,67.35
2022-10-15T14:51:42.547Z,67.38
2022-10-15T14:55:06.351Z,72.21
2022-10-15T14:58:27.603Z,68.52
2022-10-15T15:05:22.518Z,81.68
2022-10-15T15:08:38.889Z,75.88
2022-10-15T15:12:21.800Z,74.11
2022-10-15T15:15:30.270Z,71.59
2022-10-15T15:18:49.045Z,70.05
2022-10-15T15:22:05.837Z,70.43
2022-10-15T15:25:29.766Z,69.79
2022-10-15T15:28:46.779Z,74.68
2022-10-15T15:32:02.933Z,81.64
2022-10-15T15:35:32.390Z,80.42
2022-10-15T15:38:51.889Z,73.00
2022-10-15T15:42:08.149Z,76.96
2022-10-15T15:45:33.612Z,79.68
2022-10-15T15:48:50.545Z,78.01
2022-10-15T15:52:06.850Z,74.56
2022-10-15T15:55:26.404Z,73.99
2022-10-15T15:58:42.960Z,74.64
2022-10-15T16:01:59.243Z,74.24
2022-10-15T16:05:19.934Z,74.49
2022-10-15T16:08:37.958Z,74.82
2022-10-15T16:11:54.431Z,74.77
2022-10-15T16:15:14.556Z,75.45
2022-10-15T16:18:30.078Z,76.52
2022-10-15T16:21:46.208Z,77.65
2022-10-15T16:25:04.988Z,78.45
2022-10-15T16:28:21.782Z,76.65
2022-10-15T16:31:38.376Z,76.28
2022-10-15T16:34:54.581Z,79.19
2022-10-15T16:38:13.937Z,75.58
2022-10-15T16:41:32.148Z,73.45
2022-10-15T16:44:48.337Z,73.35
2022-10-15T16:48:08.535Z,73.06
2022-10-15T16:51:26.725Z,71.14
2022-10-15T16:54:43.141Z,71.32
2022-10-15T16:57:59.321Z,71.10
2022-10-15T17:01:18.483Z,69.82
2022-10-15T17:04:35.161Z,70.04
2022-10-15T17:07:51.305Z,70.32
2022-10-15T17:11:07.509Z,69.98
2022-10-15T17:14:25.475Z,70.20
2022-10-15T17:17:46.062Z,69.39
2022-10-15T17:21:03.327Z,68.90
2022-10-15T17:24:22.780Z,68.50
2022-10-15T17:27:39.284Z,68.65
2022-10-15T17:30:55.601Z,68.63
2022-10-15T17:34:15.711Z,68.98
2022-10-15T17:40:50.706Z,68.75
2022-10-15T17:44:07.106Z,68.92
2022-10-15T17:47:24.628Z,68.99
2022-10-15T17:50:45.247Z,69.43
2022-10-15T17:54:02.981Z,69.06
2022-10-15T17:57:20.337Z,69.54
2022-10-15T18:00:37.073Z,69.44
2022-10-15T18:03:54.107Z,69.65
2022-10-15T18:07:15.268Z,70.59
2022-10-15T18:10:32.133Z,70.64
2022-10-15T18:13:49.531Z,70.77
2022-10-15T18:17:05.909Z,70.51
2022-10-15T18:20:22.171Z,70.82
2022-10-15T18:23:45.739Z,71.06
2022-10-15T18:27:02.752Z,71.34
2022-10-15T18:30:20.539Z,71.79
2022-10-15T18:33:39.880Z,71.58
2022-10-15T18:36:56.256Z,72.37
2022-10-15T18:40:15.198Z,72.25
2022-10-15T18:43:31.710Z,72.57
2022-10-15T18:46:48.649Z,73.22
2022-10-15T18:50:04.779Z,73.47
2022-10-15T18:53:24.517Z,73.75
2022-10-15T18:56:44.991Z,74.02
2022-10-15T19:00:01.202Z,74.36
2022-10-15T19:03:18.530Z,74.99
2022-10-15T19:06:37.151Z,74.71
2022-10-15T19:09:53.884Z,75.03
2022-10-15T19:13:14.134Z,75.33
2022-10-15T19:16:30.660Z,75.70
2022-10-15T19:19:51.673Z,75.99
2022-10-15T19:23:10.697Z,76.55
2022-10-15T19:26:28.568Z,76.22
2022-10-15T19:29:45.214Z,76.43
2022-10-15T19:33:01.424Z,76.40
2022-10-15T19:36:19.789Z,76.69
2022-10-15T19:39:38.370Z,76.62
2022-10-15T19:42:54.520Z,80.20
2022-10-15T19:46:14.156Z,85.64
2022-10-15T19:49:30.531Z,85.76
2022-10-15T19:52:46.821Z,82.13
2022-10-15T19:56:09.564Z,82.05
2022-10-15T19:59:33.075Z,80.91
2022-10-15T20:02:51.792Z,81.79
2022-10-15T20:06:10.295Z,81.34
2022-10-15T20:09:26.551Z,81.23
2022-10-15T20:12:42.814Z,90.74
2022-10-15T20:16:01.234Z,83.25
2022-10-15T20:19:17.865Z,87.45
2022-10-15T20:22:34.597Z,97.63
2022-10-15T20:25:52.055Z,100.00
2022-10-15T20:29:08.401Z,100.00
2022-10-15T20:32:34.188Z,100.00
2022-10-15T20:35:45.056Z,100.00
2022-10-15T20:39:06.890Z,100.00
2022-10-15T20:42:23.262Z,100.00
2022-10-15T20:45:46.291Z,100.00
2022-10-15T20:49:07.684Z,100.00
2022-10-15T20:52:23.048Z,100.00
2022-10-15T20:55:39.511Z,100.00
2022-10-15T20:58:55.595Z,100.00
2022-10-15T21:02:11.672Z,100.00
2022-10-15T21:05:27.820Z,100.00
2022-10-15T21:08:44.130Z,100.00
2022-10-15T21:12:00.657Z,100.00
2022-10-15T21:15:18.033Z,100.00
2022-10-15T21:18:34.899Z,100.00
2022-10-15T21:21:53.986Z,100.00
2022-10-15T21:25:12.804Z,100.00
2022-10-15T21:28:29.112Z,100.00
2022-10-15T21:31:48.052Z,100.00
2022-10-15T21:35:06.078Z,100.00
2022-10-15T21:38:22.411Z,100.00
2022-10-15T21:41:40.999Z,100.00
2022-10-15T21:44:57.039Z,100.00
2022-10-15T21:48:14.543Z,100.00
2022-10-15T21:51:33.977Z,100.00
2022-10-15T21:54:50.017Z,100.00
2022-10-15T21:58:08.859Z,100.00
2022-10-15T22:01:28.165Z,100.00
2022-10-15T22:04:44.712Z,100.00
2022-10-15T22:08:00.708Z,100.00
2022-10-15T22:11:23.991Z,100.00
2022-10-15T22:14:40.351Z,100.00
2022-10-15T22:17:56.674Z,100.00
2022-10-15T22:21:26.715Z,100.00
2022-10-15T22:24:43.106Z,100.00
2022-10-15T22:27:59.160Z,100.00
2022-10-15T22:31:19.093Z,100.00
2022-10-15T22:34:35.182Z,100.00
2022-10-15T22:37:51.337Z,100.00
2022-10-15T22:41:08.007Z,100.00
2022-10-15T22:44:26.528Z,100.00
2022-10-15T22:47:42.575Z,100.00
2022-10-15T22:51:05.472Z,100.00
2022-10-15T22:54:22.645Z,100.00
2022-10-15T22:57:39.018Z,100.00
2022-10-15T23:00:55.340Z,100.00
2022-10-15T23:04:13.539Z,100.00
2022-10-15T23:07:29.598Z,100.00
2022-10-15T23:10:45.784Z,100.00
2022-10-15T23:14:06.489Z,100.00
2022-10-15T23:20:40.811Z,100.00
2022-10-15T23:23:59.108Z,100.00
2022-10-15T23:27:16.418Z,100.00
2022-10-15T23:30:32.635Z,100.00
2022-10-15T23:33:48.823Z,100.00
2022-10-15T23:37:04.920Z,100.00
2022-10-15T23:40:21.816Z,100.00
2022-10-15T23:43:37.882Z,100.00
2022-10-15T23:46:54.152Z,100.00
2022-10-15T23:50:10.874Z,100.00
2022-10-15T23:53:28.026Z,100.00
2022-10-15T23:56:44.614Z,100.00
